Mike Weisend — WDF7611 — position and weather

sailwx.info

Track history (hours):
 
Tides and Currents Weather Stations Pressure Air Temp Water Temp Dewpoint Dewpoint Depression Visibility Wind Speed Wind Dir Waves Ship Positions

Mike Weisend

Owner: AEP River Operations LLC, Chesterfield, MO. More information available from US FCC via Universal Licensing System and Coast Guard Vessel Documentation Center.

Last reported at 2015-Jul-01 00:33 UTC. Time now 2015-Jul-02 21:27 UTC.
Position N 30°07' W 090°57'.

Length 54 m; draft 3 m.

Type: Towing. MMSI: 367486280.

Date/timePositionNaut miles runAvg speedWind from/ knotsBaromVisibWave heightAir tempDewpointWater temp
2015-Jul-01 00:33N 30°07' W 090°57'16 3.1
2015-Jun-30 19:22N 30°19' W 091°09'5 5.3
2015-Jun-30 18:30N 30°20' W 091°14'6 6.8
2015-Jun-30 17:33N 30°27' W 091°12'3 3.0
2015-Jun-30 16:33N 30°30' W 091°12'3 2.8
2015-Jun-30 15:33N 30°31' W 091°15'3 2.9
2015-Jun-30 14:33N 30°33' W 091°14'5 4.5
2015-Jun-30 13:33N 30°37' W 091°18'6 6.4
2015-Jun-30 12:33N 30°43' W 091°21'7 6.7
2015-Jun-30 11:31N 30°45' W 091°29'  
Track history (hours):
 
Tides and Currents Weather Stations Pressure Air Temp Water Temp Dewpoint Dewpoint Depression Visibility Wind Speed Wind Dir Waves Ship Positions

Mike Weisend

Owner: AEP River Operations LLC, Chesterfield, MO. More information available from US FCC via Universal Licensing System and Coast Guard Vessel Documentation Center.

Last reported at 2015-Jul-01 00:33 UTC. Time now 2015-Jul-02 21:27 UTC.
Position N 30°07' W 090°57'.

Length 54 m; draft 3 m.

Type: Towing. MMSI: 367486280.

Date/timePositionNaut miles runAvg speedWind from/ knotsBaromVisibWave heightAir tempDewpointWater temp
2015-Jul-01 00:33N 30°07' W 090°57'16 3.1
2015-Jun-30 19:22N 30°19' W 091°09'5 5.3
2015-Jun-30 18:30N 30°20' W 091°14'6 6.8
2015-Jun-30 17:33N 30°27' W 091°12'3 3.0
2015-Jun-30 16:33N 30°30' W 091°12'3 2.8
2015-Jun-30 15:33N 30°31' W 091°15'3 2.9
2015-Jun-30 14:33N 30°33' W 091°14'5 4.5
2015-Jun-30 13:33N 30°37' W 091°18'6 6.4
2015-Jun-30 12:33N 30°43' W 091°21'7 6.7
2015-Jun-30 11:31N 30°45' W 091°29'  

Dump ship's entire track history